sensor_id;sensor_type;location;lat;lon;timestamp;P1;durP1;ratioP1;P2;durP2;ratioP2
8159;SDS011;27404;52.398;9.646;2023-08-08T00:01:25;5.87;;;2.57;;
8159;SDS011;27404;52.398;9.646;2023-08-08T00:03:51;5.07;;;2.10;;
8159;SDS011;27404;52.398;9.646;2023-08-08T00:06:16;3.20;;;2.07;;
8159;SDS011;27404;52.398;9.646;2023-08-08T00:08:42;4.47;;;2.40;;
8159;SDS011;27404;52.398;9.646;2023-08-08T00:11:07;4.33;;;2.10;;
8159;SDS011;27404;52.398;9.646;2023-08-08T00:13:33;5.70;;;2.30;;
8159;SDS011;27404;52.398;9.646;2023-08-08T00:15:58;5.33;;;2.30;;
8159;SDS011;27404;52.398;9.646;2023-08-08T00:18:24;3.20;;;1.90;;
8159;SDS011;27404;52.398;9.646;2023-08-08T00:20:49;6.67;;;2.77;;
8159;SDS011;27404;52.398;9.646;2023-08-08T00:23:15;8.07;;;2.30;;
8159;SDS011;27404;52.398;9.646;2023-08-08T00:25:40;4.23;;;2.10;;
8159;SDS011;27404;52.398;9.646;2023-08-08T00:28:06;4.23;;;2.77;;
8159;SDS011;27404;52.398;9.646;2023-08-08T00:30:31;5.23;;;2.30;;
8159;SDS011;27404;52.398;9.646;2023-08-08T00:32:57;3.50;;;1.90;;
8159;SDS011;27404;52.398;9.646;2023-08-08T00:35:22;4.87;;;2.27;;
8159;SDS011;27404;52.398;9.646;2023-08-08T00:37:48;5.77;;;2.47;;
8159;SDS011;27404;52.398;9.646;2023-08-08T00:40:13;4.13;;;2.17;;
8159;SDS011;27404;52.398;9.646;2023-08-08T00:42:39;6.93;;;2.97;;
8159;SDS011;27404;52.398;9.646;2023-08-08T00:45:04;3.87;;;2.60;;
8159;SDS011;27404;52.398;9.646;2023-08-08T00:47:33;4.83;;;2.40;;
8159;SDS011;27404;52.398;9.646;2023-08-08T00:49:59;5.57;;;2.50;;
8159;SDS011;27404;52.398;9.646;2023-08-08T00:52:26;5.73;;;2.30;;
8159;SDS011;27404;52.398;9.646;2023-08-08T00:54:52;3.63;;;2.10;;
8159;SDS011;27404;52.398;9.646;2023-08-08T00:57:18;5.13;;;2.50;;
8159;SDS011;27404;52.398;9.646;2023-08-08T00:59:43;3.40;;;2.10;;
8159;SDS011;27404;52.398;9.646;2023-08-08T01:02:09;3.93;;;2.00;;
8159;SDS011;27404;52.398;9.646;2023-08-08T01:04:34;8.63;;;2.17;;
8159;SDS011;27404;52.398;9.646;2023-08-08T01:09:41;5.57;;;2.30;;
8159;SDS011;27404;52.398;9.646;2023-08-08T01:12:13;3.53;;;2.37;;
8159;SDS011;27404;52.398;9.646;2023-08-08T01:14:40;5.27;;;2.20;;
8159;SDS011;27404;52.398;9.646;2023-08-08T01:17:08;5.13;;;1.83;;
8159;SDS011;27404;52.398;9.646;2023-08-08T01:19:35;5.90;;;2.40;;
8159;SDS011;27404;52.398;9.646;2023-08-08T01:22:02;3.90;;;2.50;;
8159;SDS011;27404;52.398;9.646;2023-08-08T01:24:29;3.80;;;2.07;;
8159;SDS011;27404;52.398;9.646;2023-08-08T01:26:57;4.00;;;2.60;;
8159;SDS011;27404;52.398;9.646;2023-08-08T01:29:24;6.17;;;2.40;;
8159;SDS011;27404;52.398;9.646;2023-08-08T01:31:49;5.50;;;2.23;;
8159;SDS011;27404;52.398;9.646;2023-08-08T01:34:15;5.90;;;2.47;;
8159;SDS011;27404;52.398;9.646;2023-08-08T01:36:53;5.00;;;2.23;;
8159;SDS011;27404;52.398;9.646;2023-08-08T01:39:25;5.30;;;2.30;;
8159;SDS011;27404;52.398;9.646;2023-08-08T01:41:52;4.20;;;3.03;;
8159;SDS011;27404;52.398;9.646;2023-08-08T01:44:19;4.83;;;2.43;;
8159;SDS011;27404;52.398;9.646;2023-08-08T01:46:46;3.33;;;2.30;;
8159;SDS011;27404;52.398;9.646;2023-08-08T01:49:12;3.97;;;2.37;;
8159;SDS011;27404;52.398;9.646;2023-08-08T01:51:37;5.20;;;2.30;;
8159;SDS011;27404;52.398;9.646;2023-08-08T01:54:03;6.20;;;2.70;;
8159;SDS011;27404;52.398;9.646;2023-08-08T01:56:29;3.97;;;2.30;;
8159;SDS011;27404;52.398;9.646;2023-08-08T01:58:54;4.97;;;2.50;;
8159;SDS011;27404;52.398;9.646;2023-08-08T02:01:20;4.37;;;2.20;;
8159;SDS011;27404;52.398;9.646;2023-08-08T02:03:45;4.80;;;2.20;;
8159;SDS011;27404;52.398;9.646;2023-08-08T02:06:11;5.93;;;2.33;;
8159;SDS011;27404;52.398;9.646;2023-08-08T02:08:36;7.67;;;2.33;;
8159;SDS011;27404;52.398;9.646;2023-08-08T02:11:01;3.00;;;2.40;;
8159;SDS011;27404;52.398;9.646;2023-08-08T02:13:27;5.03;;;2.17;;
8159;SDS011;27404;52.398;9.646;2023-08-08T02:15:52;5.33;;;2.50;;
8159;SDS011;27404;52.398;9.646;2023-08-08T02:18:18;4.80;;;2.53;;
8159;SDS011;27404;52.398;9.646;2023-08-08T02:20:43;6.07;;;2.67;;
8159;SDS011;27404;52.398;9.646;2023-08-08T02:23:09;4.20;;;2.67;;
8159;SDS011;27404;52.398;9.646;2023-08-08T02:25:34;4.90;;;2.50;;
8159;SDS011;27404;52.398;9.646;2023-08-08T02:27:59;4.93;;;2.60;;
8159;SDS011;27404;52.398;9.646;2023-08-08T02:30:25;7.23;;;2.67;;
8159;SDS011;27404;52.398;9.646;2023-08-08T02:32:50;3.80;;;2.80;;
8159;SDS011;27404;52.398;9.646;2023-08-08T02:35:16;5.80;;;2.70;;
8159;SDS011;27404;52.398;9.646;2023-08-08T02:37:41;4.97;;;2.70;;
8159;SDS011;27404;52.398;9.646;2023-08-08T02:40:07;4.00;;;2.53;;
8159;SDS011;27404;52.398;9.646;2023-08-08T02:42:33;5.13;;;2.70;;
8159;SDS011;27404;52.398;9.646;2023-08-08T02:44:59;5.20;;;2.47;;
8159;SDS011;27404;52.398;9.646;2023-08-08T02:47:25;6.40;;;2.80;;
8159;SDS011;27404;52.398;9.646;2023-08-08T02:49:50;7.60;;;2.87;;
8159;SDS011;27404;52.398;9.646;2023-08-08T02:52:16;6.37;;;2.50;;
8159;SDS011;27404;52.398;9.646;2023-08-08T02:54:41;4.30;;;2.53;;
8159;SDS011;27404;52.398;9.646;2023-08-08T02:57:07;4.20;;;2.27;;
8159;SDS011;27404;52.398;9.646;2023-08-08T02:59:35;4.30;;;2.50;;
8159;SDS011;27404;52.398;9.646;2023-08-08T03:02:01;4.33;;;2.47;;
8159;SDS011;27404;52.398;9.646;2023-08-08T03:04:28;6.97;;;2.90;;
8159;SDS011;27404;52.398;9.646;2023-08-08T03:06:54;4.93;;;2.53;;
8159;SDS011;27404;52.398;9.646;2023-08-08T03:09:19;4.97;;;2.40;;
8159;SDS011;27404;52.398;9.646;2023-08-08T03:11:45;5.97;;;2.27;;
8159;SDS011;27404;52.398;9.646;2023-08-08T03:14:10;5.97;;;2.27;;
8159;SDS011;27404;52.398;9.646;2023-08-08T03:16:36;4.83;;;2.30;;
8159;SDS011;27404;52.398;9.646;2023-08-08T03:19:01;7.27;;;2.40;;
8159;SDS011;27404;52.398;9.646;2023-08-08T03:21:27;5.53;;;2.37;;
8159;SDS011;27404;52.398;9.646;2023-08-08T03:23:53;6.87;;;2.50;;
8159;SDS011;27404;52.398;9.646;2023-08-08T03:26:18;4.00;;;2.43;;
8159;SDS011;27404;52.398;9.646;2023-08-08T03:28:44;7.13;;;2.37;;
8159;SDS011;27404;52.398;9.646;2023-08-08T03:31:09;4.03;;;2.60;;
8159;SDS011;27404;52.398;9.646;2023-08-08T03:33:35;4.57;;;2.50;;
8159;SDS011;27404;52.398;9.646;2023-08-08T03:36:00;3.97;;;2.40;;
8159;SDS011;27404;52.398;9.646;2023-08-08T03:38:26;3.20;;;2.00;;
8159;SDS011;27404;52.398;9.646;2023-08-08T03:40:51;8.87;;;2.37;;
8159;SDS011;27404;52.398;9.646;2023-08-08T03:43:17;4.47;;;2.60;;
8159;SDS011;27404;52.398;9.646;2023-08-08T03:45:42;3.50;;;2.60;;
8159;SDS011;27404;52.398;9.646;2023-08-08T03:48:09;5.83;;;2.10;;
8159;SDS011;27404;52.398;9.646;2023-08-08T03:50:34;4.97;;;2.53;;
8159;SDS011;27404;52.398;9.646;2023-08-08T03:53:00;4.23;;;2.60;;
8159;SDS011;27404;52.398;9.646;2023-08-08T03:55:25;4.97;;;2.70;;
8159;SDS011;27404;52.398;9.646;2023-08-08T03:57:51;3.53;;;2.67;;
8159;SDS011;27404;52.398;9.646;2023-08-08T04:00:16;6.13;;;3.40;;
8159;SDS011;27404;52.398;9.646;2023-08-08T04:02:42;6.93;;;3.40;;
8159;SDS011;27404;52.398;9.646;2023-08-08T04:05:08;5.90;;;2.90;;
8159;SDS011;27404;52.398;9.646;2023-08-08T04:07:34;6.53;;;2.83;;
8159;SDS011;27404;52.398;9.646;2023-08-08T04:10:00;8.43;;;2.83;;
8159;SDS011;27404;52.398;9.646;2023-08-08T04:12:25;6.80;;;2.50;;
8159;SDS011;27404;52.398;9.646;2023-08-08T04:14:51;3.70;;;2.60;;
8159;SDS011;27404;52.398;9.646;2023-08-08T04:17:16;6.07;;;3.27;;
8159;SDS011;27404;52.398;9.646;2023-08-08T04:19:42;5.73;;;2.90;;
8159;SDS011;27404;52.398;9.646;2023-08-08T04:22:07;3.73;;;2.60;;
8159;SDS011;27404;52.398;9.646;2023-08-08T04:24:33;4.03;;;2.57;;
8159;SDS011;27404;52.398;9.646;2023-08-08T04:26:58;3.87;;;2.30;;
8159;SDS011;27404;52.398;9.646;2023-08-08T04:29:24;2.70;;;2.00;;
8159;SDS011;27404;52.398;9.646;2023-08-08T04:31:49;4.03;;;2.40;;
8159;SDS011;27404;52.398;9.646;2023-08-08T04:34:14;5.17;;;2.50;;
8159;SDS011;27404;52.398;9.646;2023-08-08T04:36:40;4.37;;;2.57;;
8159;SDS011;27404;52.398;9.646;2023-08-08T04:39:05;5.43;;;2.10;;
8159;SDS011;27404;52.398;9.646;2023-08-08T04:41:31;4.67;;;2.20;;
8159;SDS011;27404;52.398;9.646;2023-08-08T04:43:56;7.53;;;2.80;;
8159;SDS011;27404;52.398;9.646;2023-08-08T04:46:22;4.23;;;2.50;;
8159;SDS011;27404;52.398;9.646;2023-08-08T04:48:47;5.33;;;2.40;;
8159;SDS011;27404;52.398;9.646;2023-08-08T04:51:13;3.93;;;2.40;;
8159;SDS011;27404;52.398;9.646;2023-08-08T04:53:38;6.80;;;2.27;;
8159;SDS011;27404;52.398;9.646;2023-08-08T04:56:03;8.53;;;2.80;;
8159;SDS011;27404;52.398;9.646;2023-08-08T04:58:29;9.40;;;2.97;;
8159;SDS011;27404;52.398;9.646;2023-08-08T05:00:54;3.50;;;2.67;;
8159;SDS011;27404;52.398;9.646;2023-08-08T05:03:20;4.20;;;2.43;;
8159;SDS011;27404;52.398;9.646;2023-08-08T05:05:45;5.30;;;2.90;;
8159;SDS011;27404;52.398;9.646;2023-08-08T05:08:11;4.67;;;3.23;;
8159;SDS011;27404;52.398;9.646;2023-08-08T05:10:38;5.93;;;2.70;;
8159;SDS011;27404;52.398;9.646;2023-08-08T05:13:04;4.70;;;2.40;;
8159;SDS011;27404;52.398;9.646;2023-08-08T05:15:29;4.97;;;2.63;;
8159;SDS011;27404;52.398;9.646;2023-08-08T05:17:55;5.00;;;2.43;;
8159;SDS011;27404;52.398;9.646;2023-08-08T05:20:21;5.60;;;2.53;;
8159;SDS011;27404;52.398;9.646;2023-08-08T05:22:47;3.90;;;2.70;;
8159;SDS011;27404;52.398;9.646;2023-08-08T05:25:12;6.63;;;2.27;;
8159;SDS011;27404;52.398;9.646;2023-08-08T05:27:38;7.17;;;2.80;;
8159;SDS011;27404;52.398;9.646;2023-08-08T05:30:04;4.67;;;2.43;;
8159;SDS011;27404;52.398;9.646;2023-08-08T05:32:30;4.07;;;2.50;;
8159;SDS011;27404;52.398;9.646;2023-08-08T05:34:56;4.40;;;2.87;;
8159;SDS011;27404;52.398;9.646;2023-08-08T05:37:22;5.03;;;2.60;;
8159;SDS011;27404;52.398;9.646;2023-08-08T05:39:48;7.07;;;2.80;;
8159;SDS011;27404;52.398;9.646;2023-08-08T05:42:14;3.90;;;2.50;;
8159;SDS011;27404;52.398;9.646;2023-08-08T05:44:39;6.73;;;2.67;;
8159;SDS011;27404;52.398;9.646;2023-08-08T05:47:06;4.40;;;2.50;;
8159;SDS011;27404;52.398;9.646;2023-08-08T05:49:32;6.27;;;2.60;;
8159;SDS011;27404;52.398;9.646;2023-08-08T05:51:57;5.97;;;2.50;;
8159;SDS011;27404;52.398;9.646;2023-08-08T05:54:23;6.90;;;2.77;;
8159;SDS011;27404;52.398;9.646;2023-08-08T05:56:48;4.53;;;2.50;;
8159;SDS011;27404;52.398;9.646;2023-08-08T05:59:14;5.67;;;2.47;;
8159;SDS011;27404;52.398;9.646;2023-08-08T06:01:39;5.03;;;2.57;;
8159;SDS011;27404;52.398;9.646;2023-08-08T06:04:05;4.83;;;2.53;;
8159;SDS011;27404;52.398;9.646;2023-08-08T06:06:30;5.47;;;2.97;;
8159;SDS011;27404;52.398;9.646;2023-08-08T06:08:55;5.27;;;2.57;;
8159;SDS011;27404;52.398;9.646;2023-08-08T06:11:21;4.50;;;2.30;;
8159;SDS011;27404;52.398;9.646;2023-08-08T06:13:47;6.70;;;3.17;;
8159;SDS011;27404;52.398;9.646;2023-08-08T06:16:13;5.67;;;2.60;;
8159;SDS011;27404;52.398;9.646;2023-08-08T06:18:40;3.77;;;2.17;;
8159;SDS011;27404;52.398;9.646;2023-08-08T06:21:06;7.87;;;2.57;;
8159;SDS011;27404;52.398;9.646;2023-08-08T06:23:32;3.67;;;2.00;;
8159;SDS011;27404;52.398;9.646;2023-08-08T06:25:57;3.50;;;2.00;;
8159;SDS011;27404;52.398;9.646;2023-08-08T06:28:23;4.93;;;1.97;;
8159;SDS011;27404;52.398;9.646;2023-08-08T06:30:48;7.30;;;2.90;;
8159;SDS011;27404;52.398;9.646;2023-08-08T06:33:14;4.67;;;1.93;;
8159;SDS011;27404;52.398;9.646;2023-08-08T06:35:39;7.53;;;2.27;;
8159;SDS011;27404;52.398;9.646;2023-08-08T06:38:05;5.73;;;2.13;;
8159;SDS011;27404;52.398;9.646;2023-08-08T06:40:30;5.88;;;2.40;;
8159;SDS011;27404;52.398;9.646;2023-08-08T06:42:56;5.38;;;2.00;;
8159;SDS011;27404;52.398;9.646;2023-08-08T06:45:21;4.57;;;1.92;;
8159;SDS011;27404;52.398;9.646;2023-08-08T06:47:47;5.43;;;2.20;;
8159;SDS011;27404;52.398;9.646;2023-08-08T06:50:12;4.45;;;2.20;;
8159;SDS011;27404;52.398;9.646;2023-08-08T06:52:38;6.13;;;2.35;;
8159;SDS011;27404;52.398;9.646;2023-08-08T06:55:04;6.60;;;2.33;;
8159;SDS011;27404;52.398;9.646;2023-08-08T06:57:31;6.07;;;2.65;;
8159;SDS011;27404;52.398;9.646;2023-08-08T06:59:58;8.32;;;2.10;;
8159;SDS011;27404;52.398;9.646;2023-08-08T07:02:23;5.25;;;1.90;;
8159;SDS011;27404;52.398;9.646;2023-08-08T07:04:49;6.57;;;2.25;;
8159;SDS011;27404;52.398;9.646;2023-08-08T07:07:15;7.10;;;2.05;;
8159;SDS011;27404;52.398;9.646;2023-08-08T07:09:40;5.85;;;1.90;;
8159;SDS011;27404;52.398;9.646;2023-08-08T07:12:06;5.40;;;2.00;;
8159;SDS011;27404;52.398;9.646;2023-08-08T07:14:32;3.47;;;1.90;;
8159;SDS011;27404;52.398;9.646;2023-08-08T07:16:58;9.53;;;2.63;;
8159;SDS011;27404;52.398;9.646;2023-08-08T07:19:23;4.63;;;2.20;;
8159;SDS011;27404;52.398;9.646;2023-08-08T07:21:49;6.17;;;2.13;;
8159;SDS011;27404;52.398;9.646;2023-08-08T07:24:15;6.73;;;3.10;;
8159;SDS011;27404;52.398;9.646;2023-08-08T07:26:41;5.13;;;2.53;;
8159;SDS011;27404;52.398;9.646;2023-08-08T07:29:07;8.27;;;2.60;;
8159;SDS011;27404;52.398;9.646;2023-08-08T07:31:32;6.17;;;2.23;;
8159;SDS011;27404;52.398;9.646;2023-08-08T07:33:58;6.13;;;2.30;;
8159;SDS011;27404;52.398;9.646;2023-08-08T07:36:24;8.40;;;2.67;;
8159;SDS011;27404;52.398;9.646;2023-08-08T07:38:49;5.27;;;2.10;;
8159;SDS011;27404;52.398;9.646;2023-08-08T07:41:15;7.60;;;2.40;;
8159;SDS011;27404;52.398;9.646;2023-08-08T07:43:40;7.27;;;2.50;;
8159;SDS011;27404;52.398;9.646;2023-08-08T07:46:05;4.37;;;2.27;;
8159;SDS011;27404;52.398;9.646;2023-08-08T07:48:31;8.43;;;2.30;;
8159;SDS011;27404;52.398;9.646;2023-08-08T07:50:57;5.93;;;2.37;;
8159;SDS011;27404;52.398;9.646;2023-08-08T07:53:22;4.07;;;1.87;;
8159;SDS011;27404;52.398;9.646;2023-08-08T07:55:47;9.37;;;2.47;;
8159;SDS011;27404;52.398;9.646;2023-08-08T07:58:13;5.83;;;2.30;;
8159;SDS011;27404;52.398;9.646;2023-08-08T08:00:39;6.07;;;2.13;;
8159;SDS011;27404;52.398;9.646;2023-08-08T08:03:04;6.33;;;2.20;;
8159;SDS011;27404;52.398;9.646;2023-08-08T08:05:30;9.30;;;1.97;;
8159;SDS011;27404;52.398;9.646;2023-08-08T08:07:55;5.60;;;2.33;;
8159;SDS011;27404;52.398;9.646;2023-08-08T08:10:21;8.03;;;2.10;;
8159;SDS011;27404;52.398;9.646;2023-08-08T08:12:46;4.77;;;1.70;;
8159;SDS011;27404;52.398;9.646;2023-08-08T08:15:11;4.10;;;1.80;;
8159;SDS011;27404;52.398;9.646;2023-08-08T08:17:38;3.70;;;1.67;;
8159;SDS011;27404;52.398;9.646;2023-08-08T08:20:04;6.37;;;1.80;;
8159;SDS011;27404;52.398;9.646;2023-08-08T08:22:35;6.07;;;1.80;;
8159;SDS011;27404;52.398;9.646;2023-08-08T08:25:01;5.07;;;1.87;;
8159;SDS011;27404;52.398;9.646;2023-08-08T08:27:27;5.10;;;1.93;;
8159;SDS011;27404;52.398;9.646;2023-08-08T08:29:52;4.07;;;2.23;;
8159;SDS011;27404;52.398;9.646;2023-08-08T08:32:18;4.10;;;1.60;;
8159;SDS011;27404;52.398;9.646;2023-08-08T08:34:43;4.07;;;2.00;;
8159;SDS011;27404;52.398;9.646;2023-08-08T08:37:09;4.53;;;1.60;;
8159;SDS011;27404;52.398;9.646;2023-08-08T08:39:34;4.63;;;1.53;;
8159;SDS011;27404;52.398;9.646;2023-08-08T08:42:00;4.90;;;1.60;;
8159;SDS011;27404;52.398;9.646;2023-08-08T08:44:30;4.50;;;1.50;;
8159;SDS011;27404;52.398;9.646;2023-08-08T08:46:58;4.90;;;1.57;;
8159;SDS011;27404;52.398;9.646;2023-08-08T08:49:26;4.27;;;1.63;;
8159;SDS011;27404;52.398;9.646;2023-08-08T08:51:55;6.03;;;1.40;;
8159;SDS011;27404;52.398;9.646;2023-08-08T08:54:21;4.97;;;1.40;;
8159;SDS011;27404;52.398;9.646;2023-08-08T08:56:47;5.23;;;1.63;;
8159;SDS011;27404;52.398;9.646;2023-08-08T08:59:13;4.07;;;1.90;;
8159;SDS011;27404;52.398;9.646;2023-08-08T09:01:39;4.67;;;2.07;;
8159;SDS011;27404;52.398;9.646;2023-08-08T09:04:04;6.93;;;1.77;;
8159;SDS011;27404;52.398;9.646;2023-08-08T09:06:33;5.77;;;1.43;;
8159;SDS011;27404;52.398;9.646;2023-08-08T09:08:58;5.47;;;1.50;;
8159;SDS011;27404;52.398;9.646;2023-08-08T09:11:24;2.73;;;1.70;;
8159;SDS011;27404;52.398;9.646;2023-08-08T09:13:50;5.70;;;2.03;;
8159;SDS011;27404;52.398;9.646;2023-08-08T09:16:16;8.03;;;2.03;;
8159;SDS011;27404;52.398;9.646;2023-08-08T09:18:41;6.13;;;2.00;;
8159;SDS011;27404;52.398;9.646;2023-08-08T09:21:07;4.77;;;1.50;;
8159;SDS011;27404;52.398;9.646;2023-08-08T09:23:33;5.50;;;1.93;;
8159;SDS011;27404;52.398;9.646;2023-08-08T09:25:58;3.63;;;2.03;;
8159;SDS011;27404;52.398;9.646;2023-08-08T09:28:24;4.33;;;1.90;;
8159;SDS011;27404;52.398;9.646;2023-08-08T09:30:50;7.53;;;2.07;;
8159;SDS011;27404;52.398;9.646;2023-08-08T09:33:17;5.17;;;2.03;;
8159;SDS011;27404;52.398;9.646;2023-08-08T09:35:43;8.33;;;1.90;;
8159;SDS011;27404;52.398;9.646;2023-08-08T09:38:09;5.00;;;1.93;;
8159;SDS011;27404;52.398;9.646;2023-08-08T09:40:34;5.07;;;2.00;;
8159;SDS011;27404;52.398;9.646;2023-08-08T09:43:01;6.67;;;1.80;;
8159;SDS011;27404;52.398;9.646;2023-08-08T09:45:34;4.87;;;1.80;;
8159;SDS011;27404;52.398;9.646;2023-08-08T09:48:03;4.90;;;2.30;;
8159;SDS011;27404;52.398;9.646;2023-08-08T09:50:29;6.67;;;1.93;;
8159;SDS011;27404;52.398;9.646;2023-08-08T09:52:57;7.30;;;1.97;;
8159;SDS011;27404;52.398;9.646;2023-08-08T09:55:24;3.50;;;1.57;;
8159;SDS011;27404;52.398;9.646;2023-08-08T09:57:50;5.50;;;2.13;;
8159;SDS011;27404;52.398;9.646;2023-08-08T10:00:17;7.57;;;2.10;;
8159;SDS011;27404;52.398;9.646;2023-08-08T10:02:46;5.27;;;2.00;;
8159;SDS011;27404;52.398;9.646;2023-08-08T10:05:12;4.23;;;1.60;;
8159;SDS011;27404;52.398;9.646;2023-08-08T10:07:42;2.97;;;1.50;;
8159;SDS011;27404;52.398;9.646;2023-08-08T10:10:09;5.93;;;2.00;;
8159;SDS011;27404;52.398;9.646;2023-08-08T10:12:36;8.43;;;2.07;;
8159;SDS011;27404;52.398;9.646;2023-08-08T10:15:04;5.17;;;1.63;;
8159;SDS011;27404;52.398;9.646;2023-08-08T10:17:38;4.83;;;1.77;;
8159;SDS011;27404;52.398;9.646;2023-08-08T10:20:04;4.67;;;1.40;;
8159;SDS011;27404;52.398;9.646;2023-08-08T10:22:36;2.77;;;1.60;;
8159;SDS011;27404;52.398;9.646;2023-08-08T10:25:06;5.17;;;1.63;;
8159;SDS011;27404;52.398;9.646;2023-08-08T10:27:33;7.80;;;2.33;;
8159;SDS011;27404;52.398;9.646;2023-08-08T10:30:01;4.13;;;1.70;;
8159;SDS011;27404;52.398;9.646;2023-08-08T10:32:28;3.33;;;1.77;;
8159;SDS011;27404;52.398;9.646;2023-08-08T10:34:55;5.07;;;1.73;;
8159;SDS011;27404;52.398;9.646;2023-08-08T10:37:22;5.37;;;1.97;;
8159;SDS011;27404;52.398;9.646;2023-08-08T10:39:55;4.43;;;1.83;;
8159;SDS011;27404;52.398;9.646;2023-08-08T10:42:23;2.80;;;1.70;;
8159;SDS011;27404;52.398;9.646;2023-08-08T10:44:54;5.27;;;1.93;;
8159;SDS011;27404;52.398;9.646;2023-08-08T10:47:42;5.70;;;1.70;;
8159;SDS011;27404;52.398;9.646;2023-08-08T10:50:08;4.77;;;1.70;;
8159;SDS011;27404;52.398;9.646;2023-08-08T10:55:21;2.83;;;1.50;;
8159;SDS011;27404;52.398;9.646;2023-08-08T11:00:24;2.57;;;1.30;;
8159;SDS011;27404;52.398;9.646;2023-08-08T11:02:52;3.93;;;1.43;;
8159;SDS011;27404;52.398;9.646;2023-08-08T11:05:19;3.17;;;1.10;;
8159;SDS011;27404;52.398;9.646;2023-08-08T11:07:45;2.47;;;1.10;;
8159;SDS011;27404;52.398;9.646;2023-08-08T11:10:11;2.67;;;1.33;;
8159;SDS011;27404;52.398;9.646;2023-08-08T11:12:36;5.40;;;1.20;;
8159;SDS011;27404;52.398;9.646;2023-08-08T11:15:02;2.37;;;1.20;;
8159;SDS011;27404;52.398;9.646;2023-08-08T11:17:27;3.97;;;1.30;;
8159;SDS011;27404;52.398;9.646;2023-08-08T11:19:53;3.00;;;1.30;;
8159;SDS011;27404;52.398;9.646;2023-08-08T11:22:23;3.57;;;1.63;;
8159;SDS011;27404;52.398;9.646;2023-08-08T11:24:48;4.33;;;1.50;;
8159;SDS011;27404;52.398;9.646;2023-08-08T11:27:15;4.00;;;1.23;;
8159;SDS011;27404;52.398;9.646;2023-08-08T11:29:48;4.13;;;1.30;;
8159;SDS011;27404;52.398;9.646;2023-08-08T11:32:15;6.43;;;1.43;;
8159;SDS011;27404;52.398;9.646;2023-08-08T11:34:41;4.50;;;1.70;;
8159;SDS011;27404;52.398;9.646;2023-08-08T11:37:06;5.57;;;1.20;;
8159;SDS011;27404;52.398;9.646;2023-08-08T11:39:33;6.63;;;1.63;;
8159;SDS011;27404;52.398;9.646;2023-08-08T11:41:59;3.83;;;1.20;;
8159;SDS011;27404;52.398;9.646;2023-08-08T11:44:26;3.23;;;1.20;;
8159;SDS011;27404;52.398;9.646;2023-08-08T11:46:51;3.70;;;1.50;;
8159;SDS011;27404;52.398;9.646;2023-08-08T11:49:17;4.07;;;1.57;;
8159;SDS011;27404;52.398;9.646;2023-08-08T11:51:43;5.23;;;1.80;;
8159;SDS011;27404;52.398;9.646;2023-08-08T11:54:10;5.27;;;1.70;;
8159;SDS011;27404;52.398;9.646;2023-08-08T11:56:36;5.30;;;1.53;;
8159;SDS011;27404;52.398;9.646;2023-08-08T11:59:02;5.83;;;1.40;;
8159;SDS011;27404;52.398;9.646;2023-08-08T12:01:27;3.67;;;1.40;;
8159;SDS011;27404;52.398;9.646;2023-08-08T12:03:55;4.10;;;1.37;;
8159;SDS011;27404;52.398;9.646;2023-08-08T12:06:21;2.73;;;1.20;;
8159;SDS011;27404;52.398;9.646;2023-08-08T12:08:47;3.13;;;1.37;;
8159;SDS011;27404;52.398;9.646;2023-08-08T12:11:13;3.57;;;1.33;;
8159;SDS011;27404;52.398;9.646;2023-08-08T12:13:40;6.00;;;1.33;;
8159;SDS011;27404;52.398;9.646;2023-08-08T12:16:11;4.23;;;1.30;;
8159;SDS011;27404;52.398;9.646;2023-08-08T12:18:39;3.60;;;1.10;;
8159;SDS011;27404;52.398;9.646;2023-08-08T12:21:06;2.83;;;1.10;;
8159;SDS011;27404;52.398;9.646;2023-08-08T12:23:32;4.90;;;0.93;;
8159;SDS011;27404;52.398;9.646;2023-08-08T12:25:58;3.13;;;1.37;;
8159;SDS011;27404;52.398;9.646;2023-08-08T12:28:25;3.90;;;1.70;;
8159;SDS011;27404;52.398;9.646;2023-08-08T12:30:51;3.20;;;1.13;;
8159;SDS011;27404;52.398;9.646;2023-08-08T12:33:16;2.03;;;1.00;;
8159;SDS011;27404;52.398;9.646;2023-08-08T12:35:42;3.73;;;1.20;;
8159;SDS011;27404;52.398;9.646;2023-08-08T12:38:07;5.73;;;1.13;;
8159;SDS011;27404;52.398;9.646;2023-08-08T12:40:33;3.57;;;1.17;;
8159;SDS011;27404;52.398;9.646;2023-08-08T12:42:59;2.97;;;1.20;;
8159;SDS011;27404;52.398;9.646;2023-08-08T12:45:24;3.13;;;1.20;;
8159;SDS011;27404;52.398;9.646;2023-08-08T12:47:50;4.07;;;1.33;;
8159;SDS011;27404;52.398;9.646;2023-08-08T12:50:15;6.53;;;1.40;;
8159;SDS011;27404;52.398;9.646;2023-08-08T12:52:41;5.17;;;1.10;;
8159;SDS011;27404;52.398;9.646;2023-08-08T12:55:07;3.63;;;1.70;;
8159;SDS011;27404;52.398;9.646;2023-08-08T12:57:34;7.53;;;1.60;;
8159;SDS011;27404;52.398;9.646;2023-08-08T12:59:59;10.03;;;1.70;;
8159;SDS011;27404;52.398;9.646;2023-08-08T13:02:24;7.17;;;1.80;;
8159;SDS011;27404;52.398;9.646;2023-08-08T13:04:50;3.93;;;1.30;;
8159;SDS011;27404;52.398;9.646;2023-08-08T13:07:16;4.30;;;1.67;;
8159;SDS011;27404;52.398;9.646;2023-08-08T13:09:41;3.37;;;1.20;;
8159;SDS011;27404;52.398;9.646;2023-08-08T13:12:07;5.13;;;1.50;;
8159;SDS011;27404;52.398;9.646;2023-08-08T13:14:32;5.43;;;1.60;;
8159;SDS011;27404;52.398;9.646;2023-08-08T13:16:58;3.27;;;1.10;;
8159;SDS011;27404;52.398;9.646;2023-08-08T13:19:24;3.20;;;1.10;;
8159;SDS011;27404;52.398;9.646;2023-08-08T13:21:53;3.97;;;1.20;;
8159;SDS011;27404;52.398;9.646;2023-08-08T13:24:19;3.20;;;1.57;;
8159;SDS011;27404;52.398;9.646;2023-08-08T13:26:49;5.43;;;1.17;;
8159;SDS011;27404;52.398;9.646;2023-08-08T13:29:15;3.37;;;1.30;;
8159;SDS011;27404;52.398;9.646;2023-08-08T13:31:40;2.63;;;1.27;;
8159;SDS011;27404;52.398;9.646;2023-08-08T13:34:06;4.27;;;1.10;;
8159;SDS011;27404;52.398;9.646;2023-08-08T13:36:31;2.40;;;1.27;;
8159;SDS011;27404;52.398;9.646;2023-08-08T13:38:56;2.30;;;1.10;;
8159;SDS011;27404;52.398;9.646;2023-08-08T13:41:22;5.47;;;1.20;;
8159;SDS011;27404;52.398;9.646;2023-08-08T13:43:48;3.30;;;1.20;;
8159;SDS011;27404;52.398;9.646;2023-08-08T13:46:13;2.93;;;1.17;;
8159;SDS011;27404;52.398;9.646;2023-08-08T13:48:39;4.10;;;1.07;;
8159;SDS011;27404;52.398;9.646;2023-08-08T13:51:05;1.50;;;0.97;;
8159;SDS011;27404;52.398;9.646;2023-08-08T13:53:30;3.00;;;1.10;;
8159;SDS011;27404;52.398;9.646;2023-08-08T13:55:56;2.50;;;1.20;;
8159;SDS011;27404;52.398;9.646;2023-08-08T13:58:21;3.30;;;1.27;;
8159;SDS011;27404;52.398;9.646;2023-08-08T14:00:50;4.73;;;1.40;;
8159;SDS011;27404;52.398;9.646;2023-08-08T14:03:16;2.70;;;1.20;;
8159;SDS011;27404;52.398;9.646;2023-08-08T14:05:41;3.10;;;1.33;;
8159;SDS011;27404;52.398;9.646;2023-08-08T14:08:08;5.17;;;1.43;;
8159;SDS011;27404;52.398;9.646;2023-08-08T14:10:34;3.40;;;1.50;;
8159;SDS011;27404;52.398;9.646;2023-08-08T14:13:00;3.30;;;1.20;;
8159;SDS011;27404;52.398;9.646;2023-08-08T14:15:25;2.97;;;1.20;;
8159;SDS011;27404;52.398;9.646;2023-08-08T14:17:51;2.73;;;1.40;;
8159;SDS011;27404;52.398;9.646;2023-08-08T14:20:16;3.33;;;1.20;;
8159;SDS011;27404;52.398;9.646;2023-08-08T14:22:44;2.47;;;1.20;;
8159;SDS011;27404;52.398;9.646;2023-08-08T14:25:11;4.47;;;1.47;;
8159;SDS011;27404;52.398;9.646;2023-08-08T14:27:37;3.30;;;1.40;;
8159;SDS011;27404;52.398;9.646;2023-08-08T14:30:02;2.57;;;1.00;;
8159;SDS011;27404;52.398;9.646;2023-08-08T14:32:29;4.33;;;1.30;;
8159;SDS011;27404;52.398;9.646;2023-08-08T14:34:54;3.27;;;1.00;;
8159;SDS011;27404;52.398;9.646;2023-08-08T14:37:20;2.07;;;0.90;;
8159;SDS011;27404;52.398;9.646;2023-08-08T14:39:46;3.80;;;0.80;;
8159;SDS011;27404;52.398;9.646;2023-08-08T14:42:12;1.13;;;0.70;;
8159;SDS011;27404;52.398;9.646;2023-08-08T14:44:37;2.67;;;0.87;;
8159;SDS011;27404;52.398;9.646;2023-08-08T14:47:03;1.37;;;0.80;;
8159;SDS011;27404;52.398;9.646;2023-08-08T14:49:28;2.20;;;0.83;;
8159;SDS011;27404;52.398;9.646;2023-08-08T14:51:54;1.70;;;0.60;;
8159;SDS011;27404;52.398;9.646;2023-08-08T14:54:19;1.83;;;0.87;;
8159;SDS011;27404;52.398;9.646;2023-08-08T14:56:45;2.13;;;0.60;;
8159;SDS011;27404;52.398;9.646;2023-08-08T14:59:10;1.23;;;0.57;;
8159;SDS011;27404;52.398;9.646;2023-08-08T15:01:36;2.40;;;0.60;;